sensor_id;sensor_type;location;lat;lon;timestamp;P1;durP1;ratioP1;P2;durP2;ratioP2
2320;SDS011;15376;48.540;9.268;2023-01-29T00:01:03;15.90;;;11.93;;
2320;SDS011;15376;48.540;9.268;2023-01-29T00:03:29;16.80;;;12.97;;
2320;SDS011;15376;48.540;9.268;2023-01-29T00:05:55;18.00;;;11.60;;
2320;SDS011;15376;48.540;9.268;2023-01-29T00:08:20;14.70;;;12.20;;
2320;SDS011;15376;48.540;9.268;2023-01-29T00:10:46;17.17;;;12.57;;
2320;SDS011;15376;48.540;9.268;2023-01-29T00:13:11;14.83;;;13.23;;
2320;SDS011;15376;48.540;9.268;2023-01-29T00:15:37;16.93;;;11.90;;
2320;SDS011;15376;48.540;9.268;2023-01-29T00:18:03;14.90;;;11.07;;
2320;SDS011;15376;48.540;9.268;2023-01-29T00:20:29;13.53;;;11.47;;
2320;SDS011;15376;48.540;9.268;2023-01-29T00:22:55;15.20;;;11.20;;
2320;SDS011;15376;48.540;9.268;2023-01-29T00:25:20;13.40;;;10.60;;
2320;SDS011;15376;48.540;9.268;2023-01-29T00:27:45;16.80;;;12.40;;
2320;SDS011;15376;48.540;9.268;2023-01-29T00:30:11;15.40;;;11.67;;
2320;SDS011;15376;48.540;9.268;2023-01-29T00:32:37;17.33;;;11.40;;
2320;SDS011;15376;48.540;9.268;2023-01-29T00:35:07;16.57;;;12.13;;
2320;SDS011;15376;48.540;9.268;2023-01-29T00:37:33;12.03;;;10.80;;
2320;SDS011;15376;48.540;9.268;2023-01-29T00:39:58;14.40;;;10.27;;
2320;SDS011;15376;48.540;9.268;2023-01-29T00:42:23;16.17;;;11.20;;
2320;SDS011;15376;48.540;9.268;2023-01-29T00:45:08;16.63;;;12.50;;
2320;SDS011;15376;48.540;9.268;2023-01-29T00:47:34;13.97;;;10.77;;
2320;SDS011;15376;48.540;9.268;2023-01-29T00:50:04;15.27;;;10.93;;
2320;SDS011;15376;48.540;9.268;2023-01-29T00:52:31;15.10;;;11.20;;
2320;SDS011;15376;48.540;9.268;2023-01-29T00:54:57;12.67;;;10.43;;
2320;SDS011;15376;48.540;9.268;2023-01-29T00:57:24;12.90;;;10.70;;
2320;SDS011;15376;48.540;9.268;2023-01-29T00:59:51;12.33;;;11.00;;
2320;SDS011;15376;48.540;9.268;2023-01-29T01:02:17;22.57;;;12.20;;
2320;SDS011;15376;48.540;9.268;2023-01-29T01:05:01;14.67;;;11.97;;
2320;SDS011;15376;48.540;9.268;2023-01-29T01:07:27;12.90;;;11.07;;
2320;SDS011;15376;48.540;9.268;2023-01-29T01:09:53;14.27;;;10.70;;
2320;SDS011;15376;48.540;9.268;2023-01-29T01:12:36;13.80;;;11.60;;
2320;SDS011;15376;48.540;9.268;2023-01-29T01:15:02;13.53;;;11.03;;
2320;SDS011;15376;48.540;9.268;2023-01-29T01:17:27;13.60;;;11.00;;
2320;SDS011;15376;48.540;9.268;2023-01-29T01:19:53;15.17;;;12.10;;
2320;SDS011;15376;48.540;9.268;2023-01-29T01:22:18;17.10;;;11.57;;
2320;SDS011;15376;48.540;9.268;2023-01-29T01:24:44;14.60;;;12.13;;
2320;SDS011;15376;48.540;9.268;2023-01-29T01:27:09;15.13;;;12.33;;
2320;SDS011;15376;48.540;9.268;2023-01-29T01:29:34;14.27;;;12.00;;
2320;SDS011;15376;48.540;9.268;2023-01-29T01:32:00;13.27;;;11.20;;
2320;SDS011;15376;48.540;9.268;2023-01-29T01:34:26;15.90;;;11.80;;
2320;SDS011;15376;48.540;9.268;2023-01-29T01:36:52;15.13;;;10.23;;
2320;SDS011;15376;48.540;9.268;2023-01-29T01:39:18;14.90;;;11.10;;
2320;SDS011;15376;48.540;9.268;2023-01-29T01:41:43;14.83;;;11.30;;
2320;SDS011;15376;48.540;9.268;2023-01-29T01:47:13;14.37;;;10.63;;
2320;SDS011;15376;48.540;9.268;2023-01-29T01:49:40;12.80;;;11.00;;
2320;SDS011;15376;48.540;9.268;2023-01-29T01:52:06;13.80;;;11.27;;
2320;SDS011;15376;48.540;9.268;2023-01-29T01:54:32;12.90;;;11.03;;
2320;SDS011;15376;48.540;9.268;2023-01-29T01:57:02;16.50;;;12.10;;
2320;SDS011;15376;48.540;9.268;2023-01-29T01:59:42;18.60;;;13.93;;
2320;SDS011;15376;48.540;9.268;2023-01-29T02:02:12;14.50;;;12.13;;
2320;SDS011;15376;48.540;9.268;2023-01-29T02:04:57;14.07;;;11.97;;
2320;SDS011;15376;48.540;9.268;2023-01-29T02:07:42;13.50;;;11.40;;
2320;SDS011;15376;48.540;9.268;2023-01-29T02:10:30;16.10;;;12.40;;
2320;SDS011;15376;48.540;9.268;2023-01-29T02:13:03;13.17;;;11.00;;
2320;SDS011;15376;48.540;9.268;2023-01-29T02:15:30;13.10;;;10.97;;
2320;SDS011;15376;48.540;9.268;2023-01-29T02:17:56;15.53;;;11.80;;
2320;SDS011;15376;48.540;9.268;2023-01-29T02:20:28;14.63;;;11.57;;
2320;SDS011;15376;48.540;9.268;2023-01-29T02:31:45;16.13;;;11.70;;
2320;SDS011;15376;48.540;9.268;2023-01-29T02:37:49;14.40;;;11.50;;
2320;SDS011;15376;48.540;9.268;2023-01-29T02:48:18;12.93;;;11.63;;
2320;SDS011;15376;48.540;9.268;2023-01-29T02:50:56;13.10;;;10.60;;
2320;SDS011;15376;48.540;9.268;2023-01-29T02:56:58;15.50;;;11.37;;
2320;SDS011;15376;48.540;9.268;2023-01-29T02:59:25;18.63;;;11.90;;
2320;SDS011;15376;48.540;9.268;2023-01-29T03:02:00;14.90;;;11.10;;
2320;SDS011;15376;48.540;9.268;2023-01-29T03:04:32;14.73;;;10.70;;
2320;SDS011;15376;48.540;9.268;2023-01-29T03:07:07;14.63;;;11.30;;
2320;SDS011;15376;48.540;9.268;2023-01-29T03:09:57;19.00;;;11.63;;
2320;SDS011;15376;48.540;9.268;2023-01-29T03:12:27;13.73;;;11.03;;
2320;SDS011;15376;48.540;9.268;2023-01-29T03:14:58;14.73;;;11.80;;
2320;SDS011;15376;48.540;9.268;2023-01-29T03:17:42;14.97;;;10.93;;
2320;SDS011;15376;48.540;9.268;2023-01-29T03:20:17;17.20;;;11.40;;
2320;SDS011;15376;48.540;9.268;2023-01-29T03:22:51;16.73;;;12.70;;
2320;SDS011;15376;48.540;9.268;2023-01-29T03:25:21;12.80;;;10.10;;
2320;SDS011;15376;48.540;9.268;2023-01-29T03:28:08;13.53;;;11.50;;
2320;SDS011;15376;48.540;9.268;2023-01-29T03:30:59;14.90;;;10.60;;
2320;SDS011;15376;48.540;9.268;2023-01-29T03:33:50;12.90;;;11.00;;
2320;SDS011;15376;48.540;9.268;2023-01-29T03:36:21;14.20;;;9.80;;
2320;SDS011;15376;48.540;9.268;2023-01-29T03:39:02;14.10;;;11.57;;
2320;SDS011;15376;48.540;9.268;2023-01-29T03:41:32;15.17;;;11.17;;
2320;SDS011;15376;48.540;9.268;2023-01-29T03:44:14;16.60;;;11.63;;
2320;SDS011;15376;48.540;9.268;2023-01-29T03:46:51;15.60;;;11.67;;
2320;SDS011;15376;48.540;9.268;2023-01-29T03:49:23;11.20;;;9.93;;
2320;SDS011;15376;48.540;9.268;2023-01-29T03:51:58;16.87;;;10.47;;
2320;SDS011;15376;48.540;9.268;2023-01-29T03:57:34;15.73;;;12.03;;
2320;SDS011;15376;48.540;9.268;2023-01-29T04:00:15;14.73;;;11.17;;
2320;SDS011;15376;48.540;9.268;2023-01-29T04:05:27;11.03;;;9.90;;
2320;SDS011;15376;48.540;9.268;2023-01-29T04:08:01;15.37;;;11.70;;
2320;SDS011;15376;48.540;9.268;2023-01-29T04:10:32;14.57;;;9.97;;
2320;SDS011;15376;48.540;9.268;2023-01-29T04:13:03;13.63;;;11.40;;
2320;SDS011;15376;48.540;9.268;2023-01-29T04:15:33;12.40;;;10.60;;
2320;SDS011;15376;48.540;9.268;2023-01-29T04:18:04;15.93;;;12.40;;
2320;SDS011;15376;48.540;9.268;2023-01-29T04:20:29;14.20;;;11.50;;
2320;SDS011;15376;48.540;9.268;2023-01-29T04:22:55;16.90;;;11.00;;
2320;SDS011;15376;48.540;9.268;2023-01-29T04:25:28;17.87;;;10.97;;
2320;SDS011;15376;48.540;9.268;2023-01-29T04:30:39;15.40;;;11.77;;
2320;SDS011;15376;48.540;9.268;2023-01-29T04:36:02;12.27;;;10.23;;
2320;SDS011;15376;48.540;9.268;2023-01-29T04:41:33;13.67;;;10.47;;
2320;SDS011;15376;48.540;9.268;2023-01-29T04:44:15;13.90;;;11.77;;
2320;SDS011;15376;48.540;9.268;2023-01-29T04:49:29;15.20;;;9.50;;
2320;SDS011;15376;48.540;9.268;2023-01-29T04:57:35;11.27;;;10.13;;
2320;SDS011;15376;48.540;9.268;2023-01-29T05:00:12;13.67;;;10.83;;
2320;SDS011;15376;48.540;9.268;2023-01-29T05:02:44;12.77;;;10.53;;
2320;SDS011;15376;48.540;9.268;2023-01-29T05:05:11;14.97;;;10.73;;
2320;SDS011;15376;48.540;9.268;2023-01-29T05:07:40;14.17;;;10.43;;
2320;SDS011;15376;48.540;9.268;2023-01-29T05:10:09;14.43;;;11.40;;
2320;SDS011;15376;48.540;9.268;2023-01-29T05:12:37;14.30;;;11.30;;
2320;SDS011;15376;48.540;9.268;2023-01-29T05:15:04;10.77;;;9.53;;
2320;SDS011;15376;48.540;9.268;2023-01-29T05:17:36;12.60;;;10.47;;
2320;SDS011;15376;48.540;9.268;2023-01-29T05:20:02;11.37;;;9.90;;
2320;SDS011;15376;48.540;9.268;2023-01-29T05:22:27;15.43;;;10.57;;
2320;SDS011;15376;48.540;9.268;2023-01-29T05:24:53;12.80;;;10.53;;
2320;SDS011;15376;48.540;9.268;2023-01-29T05:27:20;14.27;;;9.73;;
2320;SDS011;15376;48.540;9.268;2023-01-29T05:30:17;10.40;;;8.87;;
2320;SDS011;15376;48.540;9.268;2023-01-29T05:32:42;10.80;;;8.97;;
2320;SDS011;15376;48.540;9.268;2023-01-29T05:35:07;10.43;;;9.30;;
2320;SDS011;15376;48.540;9.268;2023-01-29T05:37:33;10.77;;;8.47;;
2320;SDS011;15376;48.540;9.268;2023-01-29T05:39:58;9.93;;;8.33;;
2320;SDS011;15376;48.540;9.268;2023-01-29T05:42:23;10.20;;;8.40;;
2320;SDS011;15376;48.540;9.268;2023-01-29T05:44:49;9.73;;;8.73;;
2320;SDS011;15376;48.540;9.268;2023-01-29T05:47:17;13.10;;;9.13;;
2320;SDS011;15376;48.540;9.268;2023-01-29T05:49:43;10.63;;;8.13;;
2320;SDS011;15376;48.540;9.268;2023-01-29T05:52:09;11.43;;;9.20;;
2320;SDS011;15376;48.540;9.268;2023-01-29T05:54:34;10.57;;;9.13;;
2320;SDS011;15376;48.540;9.268;2023-01-29T05:56:59;11.87;;;9.10;;
2320;SDS011;15376;48.540;9.268;2023-01-29T05:59:25;18.20;;;9.77;;
2320;SDS011;15376;48.540;9.268;2023-01-29T06:01:50;11.00;;;9.73;;
2320;SDS011;15376;48.540;9.268;2023-01-29T06:04:15;14.50;;;10.10;;
2320;SDS011;15376;48.540;9.268;2023-01-29T06:06:41;12.57;;;10.80;;
2320;SDS011;15376;48.540;9.268;2023-01-29T06:09:08;14.60;;;9.50;;
2320;SDS011;15376;48.540;9.268;2023-01-29T06:11:34;13.07;;;9.33;;
2320;SDS011;15376;48.540;9.268;2023-01-29T06:14:00;10.57;;;9.23;;
2320;SDS011;15376;48.540;9.268;2023-01-29T06:16:25;13.37;;;10.20;;
2320;SDS011;15376;48.540;9.268;2023-01-29T06:18:50;12.63;;;9.43;;
2320;SDS011;15376;48.540;9.268;2023-01-29T06:21:16;12.87;;;10.53;;
2320;SDS011;15376;48.540;9.268;2023-01-29T06:23:41;11.83;;;9.80;;
2320;SDS011;15376;48.540;9.268;2023-01-29T06:26:11;13.30;;;10.67;;
2320;SDS011;15376;48.540;9.268;2023-01-29T06:28:38;10.57;;;9.20;;
2320;SDS011;15376;48.540;9.268;2023-01-29T06:31:04;8.93;;;7.37;;
2320;SDS011;15376;48.540;9.268;2023-01-29T06:33:30;11.73;;;8.07;;
2320;SDS011;15376;48.540;9.268;2023-01-29T06:35:56;6.93;;;6.23;;
2320;SDS011;15376;48.540;9.268;2023-01-29T06:38:23;8.87;;;7.47;;
2320;SDS011;15376;48.540;9.268;2023-01-29T06:40:49;11.07;;;8.10;;
2320;SDS011;15376;48.540;9.268;2023-01-29T06:43:15;7.10;;;6.47;;
2320;SDS011;15376;48.540;9.268;2023-01-29T06:45:47;9.47;;;7.40;;
2320;SDS011;15376;48.540;9.268;2023-01-29T06:48:20;8.70;;;7.77;;
2320;SDS011;15376;48.540;9.268;2023-01-29T06:50:47;8.37;;;6.80;;
2320;SDS011;15376;48.540;9.268;2023-01-29T06:53:13;8.00;;;6.90;;
2320;SDS011;15376;48.540;9.268;2023-01-29T06:55:40;8.93;;;7.23;;
2320;SDS011;15376;48.540;9.268;2023-01-29T06:58:10;6.40;;;5.80;;
2320;SDS011;15376;48.540;9.268;2023-01-29T07:00:36;8.97;;;8.03;;
2320;SDS011;15376;48.540;9.268;2023-01-29T07:03:02;7.30;;;6.50;;
2320;SDS011;15376;48.540;9.268;2023-01-29T07:05:29;7.03;;;6.33;;
2320;SDS011;15376;48.540;9.268;2023-01-29T07:07:55;6.90;;;6.20;;
2320;SDS011;15376;48.540;9.268;2023-01-29T07:10:20;8.20;;;7.30;;
2320;SDS011;15376;48.540;9.268;2023-01-29T07:12:46;6.47;;;5.80;;
2320;SDS011;15376;48.540;9.268;2023-01-29T07:15:11;6.03;;;5.43;;
2320;SDS011;15376;48.540;9.268;2023-01-29T07:17:37;8.23;;;7.47;;
2320;SDS011;15376;48.540;9.268;2023-01-29T07:20:03;6.63;;;6.03;;
2320;SDS011;15376;48.540;9.268;2023-01-29T07:22:29;6.03;;;5.43;;
2320;SDS011;15376;48.540;9.268;2023-01-29T07:24:55;6.80;;;6.20;;
2320;SDS011;15376;48.540;9.268;2023-01-29T07:27:20;7.30;;;6.70;;
2320;SDS011;15376;48.540;9.268;2023-01-29T07:29:45;6.57;;;5.83;;
2320;SDS011;15376;48.540;9.268;2023-01-29T07:32:11;6.90;;;5.83;;
2320;SDS011;15376;48.540;9.268;2023-01-29T07:34:37;5.87;;;5.27;;
2320;SDS011;15376;48.540;9.268;2023-01-29T07:37:02;9.77;;;5.83;;
2320;SDS011;15376;48.540;9.268;2023-01-29T07:39:28;6.77;;;6.13;;
2320;SDS011;15376;48.540;9.268;2023-01-29T07:41:53;6.63;;;5.80;;
2320;SDS011;15376;48.540;9.268;2023-01-29T07:44:18;5.60;;;5.10;;
2320;SDS011;15376;48.540;9.268;2023-01-29T07:46:44;4.50;;;4.10;;
2320;SDS011;15376;48.540;9.268;2023-01-29T07:49:09;4.53;;;4.13;;
2320;SDS011;15376;48.540;9.268;2023-01-29T07:51:34;5.70;;;5.20;;
2320;SDS011;15376;48.540;9.268;2023-01-29T07:54:00;4.83;;;4.43;;
2320;SDS011;15376;48.540;9.268;2023-01-29T07:56:25;5.70;;;4.80;;
2320;SDS011;15376;48.540;9.268;2023-01-29T07:58:50;5.40;;;4.90;;
2320;SDS011;15376;48.540;9.268;2023-01-29T08:01:16;5.80;;;5.30;;
2320;SDS011;15376;48.540;9.268;2023-01-29T08:03:42;5.43;;;4.93;;
2320;SDS011;15376;48.540;9.268;2023-01-29T08:06:07;5.47;;;4.73;;
2320;SDS011;15376;48.540;9.268;2023-01-29T08:08:32;5.23;;;4.33;;
2320;SDS011;15376;48.540;9.268;2023-01-29T08:10:59;4.90;;;3.80;;
2320;SDS011;15376;48.540;9.268;2023-01-29T08:13:26;5.87;;;5.23;;
2320;SDS011;15376;48.540;9.268;2023-01-29T08:15:52;8.57;;;5.10;;
2320;SDS011;15376;48.540;9.268;2023-01-29T08:18:17;5.50;;;5.00;;
2320;SDS011;15376;48.540;9.268;2023-01-29T08:20:42;5.70;;;4.90;;
2320;SDS011;15376;48.540;9.268;2023-01-29T08:23:09;5.50;;;4.97;;
2320;SDS011;15376;48.540;9.268;2023-01-29T08:25:38;8.13;;;5.13;;
2320;SDS011;15376;48.540;9.268;2023-01-29T08:28:03;5.07;;;4.57;;
2320;SDS011;15376;48.540;9.268;2023-01-29T08:30:29;5.30;;;4.80;;
2320;SDS011;15376;48.540;9.268;2023-01-29T08:32:56;7.23;;;4.93;;
2320;SDS011;15376;48.540;9.268;2023-01-29T08:35:22;6.43;;;5.27;;
2320;SDS011;15376;48.540;9.268;2023-01-29T08:37:55;5.20;;;4.70;;
2320;SDS011;15376;48.540;9.268;2023-01-29T08:40:23;4.73;;;4.33;;
2320;SDS011;15376;48.540;9.268;2023-01-29T08:42:49;5.93;;;5.33;;
2320;SDS011;15376;48.540;9.268;2023-01-29T08:45:14;8.97;;;7.63;;
2320;SDS011;15376;48.540;9.268;2023-01-29T08:47:46;8.23;;;7.13;;
2320;SDS011;15376;48.540;9.268;2023-01-29T08:50:12;7.47;;;6.00;;
2320;SDS011;15376;48.540;9.268;2023-01-29T08:52:38;7.13;;;6.33;;
2320;SDS011;15376;48.540;9.268;2023-01-29T08:55:06;5.90;;;4.70;;
2320;SDS011;15376;48.540;9.268;2023-01-29T08:57:32;5.70;;;5.20;;
2320;SDS011;15376;48.540;9.268;2023-01-29T08:59:58;6.17;;;5.53;;
2320;SDS011;15376;48.540;9.268;2023-01-29T09:02:23;6.93;;;6.23;;
2320;SDS011;15376;48.540;9.268;2023-01-29T09:04:48;5.40;;;4.90;;
2320;SDS011;15376;48.540;9.268;2023-01-29T09:07:14;5.70;;;5.20;;
2320;SDS011;15376;48.540;9.268;2023-01-29T09:09:39;8.00;;;5.37;;
2320;SDS011;15376;48.540;9.268;2023-01-29T09:12:04;6.67;;;5.40;;
2320;SDS011;15376;48.540;9.268;2023-01-29T09:14:30;9.07;;;6.30;;
2320;SDS011;15376;48.540;9.268;2023-01-29T09:16:56;5.10;;;4.63;;
2320;SDS011;15376;48.540;9.268;2023-01-29T09:19:22;6.90;;;6.27;;
2320;SDS011;15376;48.540;9.268;2023-01-29T09:21:47;10.10;;;6.90;;
2320;SDS011;15376;48.540;9.268;2023-01-29T09:24:13;6.47;;;5.80;;
2320;SDS011;15376;48.540;9.268;2023-01-29T09:26:39;9.90;;;7.00;;
2320;SDS011;15376;48.540;9.268;2023-01-29T09:29:04;6.63;;;5.73;;
2320;SDS011;15376;48.540;9.268;2023-01-29T09:31:30;14.80;;;7.40;;
2320;SDS011;15376;48.540;9.268;2023-01-29T09:33:55;7.50;;;6.30;;
2320;SDS011;15376;48.540;9.268;2023-01-29T09:36:21;5.67;;;5.07;;
2320;SDS011;15376;48.540;9.268;2023-01-29T09:38:46;6.33;;;5.73;;
2320;SDS011;15376;48.540;9.268;2023-01-29T09:43:46;6.77;;;6.00;;
2320;SDS011;15376;48.540;9.268;2023-01-29T09:46:20;5.97;;;5.30;;
2320;SDS011;15376;48.540;9.268;2023-01-29T09:48:54;6.00;;;5.40;;
2320;SDS011;15376;48.540;9.268;2023-01-29T09:51:37;6.63;;;5.93;;
2320;SDS011;15376;48.540;9.268;2023-01-29T09:56:35;6.63;;;6.03;;
2320;SDS011;15376;48.540;9.268;2023-01-29T09:59:01;7.33;;;6.13;;
2320;SDS011;15376;48.540;9.268;2023-01-29T10:01:30;5.53;;;4.93;;
2320;SDS011;15376;48.540;9.268;2023-01-29T10:04:01;6.20;;;5.60;;
2320;SDS011;15376;48.540;9.268;2023-01-29T10:06:58;5.80;;;5.30;;
2320;SDS011;15376;48.540;9.268;2023-01-29T10:11:59;6.53;;;5.90;;
2320;SDS011;15376;48.540;9.268;2023-01-29T10:22:55;5.80;;;5.30;;
2320;SDS011;15376;48.540;9.268;2023-01-29T10:25:43;5.83;;;5.30;;
2320;SDS011;15376;48.540;9.268;2023-01-29T10:28:14;6.10;;;5.60;;
2320;SDS011;15376;48.540;9.268;2023-01-29T10:31:05;5.60;;;5.10;;
2320;SDS011;15376;48.540;9.268;2023-01-29T10:33:55;6.20;;;5.60;;
2320;SDS011;15376;48.540;9.268;2023-01-29T10:36:24;8.57;;;6.87;;
2320;SDS011;15376;48.540;9.268;2023-01-29T10:38:52;7.60;;;6.83;;
2320;SDS011;15376;48.540;9.268;2023-01-29T10:49:45;32.13;;;23.33;;
2320;SDS011;15376;48.540;9.268;2023-01-29T10:55:13;6.13;;;5.53;;
2320;SDS011;15376;48.540;9.268;2023-01-29T11:00:52;5.00;;;4.60;;
2320;SDS011;15376;48.540;9.268;2023-01-29T11:03:22;5.60;;;5.10;;
2320;SDS011;15376;48.540;9.268;2023-01-29T11:05:54;7.30;;;6.63;;
2320;SDS011;15376;48.540;9.268;2023-01-29T11:08:26;5.70;;;5.20;;
2320;SDS011;15376;48.540;9.268;2023-01-29T11:13:54;8.63;;;6.93;;
2320;SDS011;15376;48.540;9.268;2023-01-29T11:16:24;9.33;;;8.33;;
2320;SDS011;15376;48.540;9.268;2023-01-29T11:18:58;7.93;;;7.13;;
2320;SDS011;15376;48.540;9.268;2023-01-29T11:21:25;22.43;;;16.40;;
2320;SDS011;15376;48.540;9.268;2023-01-29T11:24:05;9.97;;;8.97;;
2320;SDS011;15376;48.540;9.268;2023-01-29T11:26:41;12.27;;;11.00;;
2320;SDS011;15376;48.540;9.268;2023-01-29T11:29:50;9.00;;;8.10;;
2320;SDS011;15376;48.540;9.268;2023-01-29T11:35:01;7.67;;;6.73;;
2320;SDS011;15376;48.540;9.268;2023-01-29T11:37:31;7.33;;;6.63;;
2320;SDS011;15376;48.540;9.268;2023-01-29T11:39:58;6.30;;;5.50;;
2320;SDS011;15376;48.540;9.268;2023-01-29T11:42:24;7.37;;;6.73;;
2320;SDS011;15376;48.540;9.268;2023-01-29T11:44:55;7.93;;;5.47;;
2320;SDS011;15376;48.540;9.268;2023-01-29T11:47:21;7.37;;;6.60;;
2320;SDS011;15376;48.540;9.268;2023-01-29T11:49:52;9.27;;;6.40;;
2320;SDS011;15376;48.540;9.268;2023-01-29T11:52:20;6.40;;;5.80;;
2320;SDS011;15376;48.540;9.268;2023-01-29T11:54:49;7.97;;;7.17;;
2320;SDS011;15376;48.540;9.268;2023-01-29T12:00:02;6.63;;;6.03;;
2320;SDS011;15376;48.540;9.268;2023-01-29T12:02:32;6.13;;;5.63;;
2320;SDS011;15376;48.540;9.268;2023-01-29T12:05:05;6.90;;;5.40;;
2320;SDS011;15376;48.540;9.268;2023-01-29T12:07:44;6.30;;;5.70;;
2320;SDS011;15376;48.540;9.268;2023-01-29T12:10:29;7.10;;;6.27;;
2320;SDS011;15376;48.540;9.268;2023-01-29T12:13:03;6.10;;;5.43;;
2320;SDS011;15376;48.540;9.268;2023-01-29T12:15:28;6.20;;;5.67;;
2320;SDS011;15376;48.540;9.268;2023-01-29T12:17:59;5.63;;;5.13;;
2320;SDS011;15376;48.540;9.268;2023-01-29T12:20:29;6.90;;;6.30;;
2320;SDS011;15376;48.540;9.268;2023-01-29T12:23:02;5.97;;;5.37;;
2320;SDS011;15376;48.540;9.268;2023-01-29T12:28:27;7.17;;;6.47;;
2320;SDS011;15376;48.540;9.268;2023-01-29T12:33:47;6.43;;;5.90;;
2320;SDS011;15376;48.540;9.268;2023-01-29T12:36:20;5.90;;;5.30;;
2320;SDS011;15376;48.540;9.268;2023-01-29T12:38:51;6.03;;;5.50;;
2320;SDS011;15376;48.540;9.268;2023-01-29T12:43:46;6.57;;;5.90;;
2320;SDS011;15376;48.540;9.268;2023-01-29T12:46:30;6.73;;;6.07;;
2320;SDS011;15376;48.540;9.268;2023-01-29T12:49:02;6.50;;;5.90;;
2320;SDS011;15376;48.540;9.268;2023-01-29T12:51:35;8.03;;;6.80;;
2320;SDS011;15376;48.540;9.268;2023-01-29T12:54:08;6.97;;;6.33;;
2320;SDS011;15376;48.540;9.268;2023-01-29T12:56:41;6.90;;;6.30;;
2320;SDS011;15376;48.540;9.268;2023-01-29T13:02:01;7.37;;;6.67;;
2320;SDS011;15376;48.540;9.268;2023-01-29T13:07:29;9.53;;;6.40;;
2320;SDS011;15376;48.540;9.268;2023-01-29T13:10:00;7.00;;;5.87;;
2320;SDS011;15376;48.540;9.268;2023-01-29T13:12:32;10.23;;;7.50;;
2320;SDS011;15376;48.540;9.268;2023-01-29T13:15:01;6.50;;;5.90;;
2320;SDS011;15376;48.540;9.268;2023-01-29T13:18:06;6.20;;;5.37;;
2320;SDS011;15376;48.540;9.268;2023-01-29T13:20:42;7.37;;;6.60;;
2320;SDS011;15376;48.540;9.268;2023-01-29T13:23:14;6.13;;;5.47;;
2320;SDS011;15376;48.540;9.268;2023-01-29T13:25:48;7.50;;;6.00;;
2320;SDS011;15376;48.540;9.268;2023-01-29T13:28:19;6.40;;;5.63;;
2320;SDS011;15376;48.540;9.268;2023-01-29T13:31:08;7.20;;;6.30;;
2320;SDS011;15376;48.540;9.268;2023-01-29T13:33:51;6.67;;;5.97;;
2320;SDS011;15376;48.540;9.268;2023-01-29T13:36:22;6.67;;;6.07;;
2320;SDS011;15376;48.540;9.268;2023-01-29T13:38:59;6.27;;;5.67;;
2320;SDS011;15376;48.540;9.268;2023-01-29T13:41:31;6.53;;;5.87;;
2320;SDS011;15376;48.540;9.268;2023-01-29T13:44:08;7.07;;;6.40;;
2320;SDS011;15376;48.540;9.268;2023-01-29T13:47:27;7.53;;;6.73;;
2320;SDS011;15376;48.540;9.268;2023-01-29T13:49:39;6.57;;;6.00;;
2320;SDS011;15376;48.540;9.268;2023-01-29T13:52:22;6.40;;;5.80;;
2320;SDS011;15376;48.540;9.268;2023-01-29T13:54:52;6.63;;;6.00;;
2320;SDS011;15376;48.540;9.268;2023-01-29T14:07:54;7.77;;;7.07;;
2320;SDS011;15376;48.540;9.268;2023-01-29T14:10:26;7.63;;;6.90;;
2320;SDS011;15376;48.540;9.268;2023-01-29T14:15:28;6.90;;;6.20;;
2320;SDS011;15376;48.540;9.268;2023-01-29T14:20:27;6.63;;;5.93;;
2320;SDS011;15376;48.540;9.268;2023-01-29T14:22:57;7.50;;;6.50;;
2320;SDS011;15376;48.540;9.268;2023-01-29T14:25:28;8.30;;;7.47;;
2320;SDS011;15376;48.540;9.268;2023-01-29T14:27:57;8.63;;;6.80;;
2320;SDS011;15376;48.540;9.268;2023-01-29T14:30:25;8.03;;;6.60;;
2320;SDS011;15376;48.540;9.268;2023-01-29T14:32:54;6.97;;;6.37;;
2320;SDS011;15376;48.540;9.268;2023-01-29T14:35:24;9.23;;;7.07;;
2320;SDS011;15376;48.540;9.268;2023-01-29T14:37:53;8.03;;;6.40;;
2320;SDS011;15376;48.540;9.268;2023-01-29T14:40:22;7.90;;;6.90;;
2320;SDS011;15376;48.540;9.268;2023-01-29T14:45:43;12.13;;;8.03;;
2320;SDS011;15376;48.540;9.268;2023-01-29T14:53:03;27.73;;;15.47;;
2320;SDS011;15376;48.540;9.268;2023-01-29T14:55:42;12.70;;;8.40;;
2320;SDS011;15376;48.540;9.268;2023-01-29T14:58:11;12.00;;;7.50;;
2320;SDS011;15376;48.540;9.268;2023-01-29T15:00:40;11.53;;;7.67;;
2320;SDS011;15376;48.540;9.268;2023-01-29T15:03:12;8.03;;;6.90;;
2320;SDS011;15376;48.540;9.268;2023-01-29T15:05:44;8.87;;;6.80;;
2320;SDS011;15376;48.540;9.268;2023-01-29T15:08:14;9.13;;;5.90;;
2320;SDS011;15376;48.540;9.268;2023-01-29T15:10:50;7.47;;;6.40;;
2320;SDS011;15376;48.540;9.268;2023-01-29T15:13:50;6.67;;;6.07;;
2320;SDS011;15376;48.540;9.268;2023-01-29T15:16:33;8.00;;;7.20;;
2320;SDS011;15376;48.540;9.268;2023-01-29T15:19:17;9.43;;;7.43;;
2320;SDS011;15376;48.540;9.268;2023-01-29T15:22:06;9.40;;;6.80;;
2320;SDS011;15376;48.540;9.268;2023-01-29T15:24:35;7.47;;;6.67;;
2320;SDS011;15376;48.540;9.268;2023-01-29T15:27:02;6.43;;;5.83;;
2320;SDS011;15376;48.540;9.268;2023-01-29T15:29:28;7.00;;;6.27;;
2320;SDS011;15376;48.540;9.268;2023-01-29T15:31:54;8.50;;;6.17;;
2320;SDS011;15376;48.540;9.268;2023-01-29T15:34:20;8.90;;;7.83;;
2320;SDS011;15376;48.540;9.268;2023-01-29T15:36:47;13.80;;;6.63;;
2320;SDS011;15376;48.540;9.268;2023-01-29T15:39:14;7.83;;;6.57;;
2320;SDS011;15376;48.540;9.268;2023-01-29T15:41:41;8.13;;;7.10;;
2320;SDS011;15376;48.540;9.268;2023-01-29T15:44:15;9.90;;;7.13;;
2320;SDS011;15376;48.540;9.268;2023-01-29T15:46:48;7.70;;;6.53;;
2320;SDS011;15376;48.540;9.268;2023-01-29T15:49:33;9.07;;;6.53;;
2320;SDS011;15376;48.540;9.268;2023-01-29T15:52:04;9.30;;;8.10;;
2320;SDS011;15376;48.540;9.268;2023-01-29T15:54:32;7.63;;;6.73;;
2320;SDS011;15376;48.540;9.268;2023-01-29T15:56:59;13.57;;;8.50;;
2320;SDS011;15376;48.540;9.268;2023-01-29T15:59:26;13.60;;;9.13;;
2320;SDS011;15376;48.540;9.268;2023-01-29T16:01:58;9.70;;;7.97;;
2320;SDS011;15376;48.540;9.268;2023-01-29T16:04:42;10.33;;;7.97;;
2320;SDS011;15376;48.540;9.268;2023-01-29T16:07:08;10.13;;;8.47;;
2320;SDS011;15376;48.540;9.268;2023-01-29T16:09:35;8.17;;;7.23;;
2320;SDS011;15376;48.540;9.268;2023-01-29T16:12:01;9.97;;;8.27;;
2320;SDS011;15376;48.540;9.268;2023-01-29T16:14:26;9.90;;;7.83;;
2320;SDS011;15376;48.540;9.268;2023-01-29T16:16:52;12.10;;;7.70;;
2320;SDS011;15376;48.540;9.268;2023-01-29T16:19:22;13.70;;;8.47;;
2320;SDS011;15376;48.540;9.268;2023-01-29T16:21:58;10.80;;;7.47;;
2320;SDS011;15376;48.540;9.268;2023-01-29T16:24:26;13.80;;;10.23;;
2320;SDS011;15376;48.540;9.268;2023-01-29T16:26:59;10.60;;;9.33;;
2320;SDS011;15376;48.540;9.268;2023-01-29T16:29:32;10.30;;;8.33;;
2320;SDS011;15376;48.540;9.268;2023-01-29T16:31:59;11.20;;;8.47;;
2320;SDS011;15376;48.540;9.268;2023-01-29T16:34:30;13.33;;;9.50;;
2320;SDS011;15376;48.540;9.268;2023-01-29T16:37:00;9.57;;;8.30;;
2320;SDS011;15376;48.540;9.268;2023-01-29T16:39:31;12.03;;;9.00;;
2320;SDS011;15376;48.540;9.268;2023-01-29T16:44:39;10.47;;;8.67;;
2320;SDS011;15376;48.540;9.268;2023-01-29T16:49:52;10.63;;;9.03;;
2320;SDS011;15376;48.540;9.268;2023-01-29T16:52:23;12.07;;;8.43;;
2320;SDS011;15376;48.540;9.268;2023-01-29T16:54:57;16.00;;;9.83;;
2320;SDS011;15376;48.540;9.268;2023-01-29T16:57:39;9.97;;;8.30;;
2320;SDS011;15376;48.540;9.268;2023-01-29T17:00:06;12.83;;;8.97;;
2320;SDS011;15376;48.540;9.268;2023-01-29T17:02:42;12.80;;;8.77;;
2320;SDS011;15376;48.540;9.268;2023-01-29T17:05:08;11.10;;;8.63;;
2320;SDS011;15376;48.540;9.268;2023-01-29T17:07:45;8.70;;;7.87;;
2320;SDS011;15376;48.540;9.268;2023-01-29T17:10:14;15.03;;;9.73;;
2320;SDS011;15376;48.540;9.268;2023-01-29T17:12:47;10.47;;;8.70;;
2320;SDS011;15376;48.540;9.268;2023-01-29T17:15:29;13.73;;;9.00;;
2320;SDS011;15376;48.540;9.268;2023-01-29T17:18:01;23.13;;;10.10;;
2320;SDS011;15376;48.540;9.268;2023-01-29T17:20:28;13.07;;;10.40;;